createdAt,value
2022-10-01T00:02:11.322Z,99.90
2022-10-01T00:04:39.718Z,99.90
2022-10-01T00:07:10.996Z,99.90
2022-10-01T00:09:39.530Z,99.90
2022-10-01T00:12:09.579Z,99.90
2022-10-01T00:14:39.517Z,99.90
2022-10-01T00:17:09.572Z,99.90
2022-10-01T00:19:37.826Z,99.90
2022-10-01T00:22:06.137Z,99.90
2022-10-01T00:24:36.654Z,99.90
2022-10-01T00:27:05.027Z,99.90
2022-10-01T00:29:33.775Z,99.90
2022-10-01T00:32:02.369Z,99.90
2022-10-01T00:34:32.219Z,99.90
2022-10-01T00:37:00.451Z,99.90
2022-10-01T00:39:29.170Z,99.90
2022-10-01T00:41:57.542Z,99.90
2022-10-01T00:44:33.399Z,99.90
2022-10-01T00:47:05.966Z,99.90
2022-10-01T00:49:39.107Z,99.90
2022-10-01T00:52:10.046Z,99.90
2022-10-01T00:54:42.924Z,99.90
2022-10-01T00:57:14.227Z,99.90
2022-10-01T00:59:42.764Z,99.90
2022-10-01T01:02:12.009Z,99.90
2022-10-01T01:04:42.710Z,99.90
2022-10-01T01:07:11.654Z,99.90
2022-10-01T01:09:44.545Z,99.90
2022-10-01T01:12:21.498Z,99.90
2022-10-01T01:14:58.151Z,99.90
2022-10-01T01:17:34.205Z,99.90
2022-10-01T01:20:30.099Z,99.90
2022-10-01T01:23:11.179Z,99.90
2022-10-01T01:25:48.062Z,99.90
2022-10-01T01:28:25.053Z,99.90
2022-10-01T01:30:59.337Z,99.90
2022-10-01T01:33:31.096Z,99.90
2022-10-01T01:36:04.677Z,99.90
2022-10-01T01:38:38.795Z,99.90
2022-10-01T01:41:08.373Z,99.90
2022-10-01T01:43:42.418Z,99.90
2022-10-01T01:46:11.995Z,99.90
2022-10-01T01:48:44.442Z,99.90
2022-10-01T01:51:17.868Z,99.90
2022-10-01T01:53:46.706Z,99.90
2022-10-01T01:56:17.330Z,99.90
2022-10-01T01:58:48.318Z,99.90
2022-10-01T02:01:37.864Z,99.90
2022-10-01T02:04:10.817Z,99.90
2022-10-01T02:06:56.342Z,99.90
2022-10-01T02:09:32.450Z,99.90
2022-10-01T02:12:11.200Z,99.90
2022-10-01T02:14:49.694Z,99.90
2022-10-01T02:17:30.754Z,99.90
2022-10-01T02:20:03.732Z,99.90
2022-10-01T02:22:38.626Z,99.90
2022-10-01T02:25:10.819Z,99.90
2022-10-01T02:27:45.410Z,99.90
2022-10-01T02:30:16.012Z,99.90
2022-10-01T02:32:47.181Z,99.90
2022-10-01T02:35:19.837Z,99.90
2022-10-01T02:37:52.971Z,99.90
2022-10-01T02:40:26.342Z,99.90
2022-10-01T02:42:58.032Z,99.90
2022-10-01T02:45:32.280Z,99.90
2022-10-01T02:48:03.794Z,99.90
2022-10-01T02:50:36.760Z,99.90
2022-10-01T02:53:10.201Z,99.90
2022-10-01T02:55:40.333Z,99.90
2022-10-01T02:58:08.489Z,99.90
2022-10-01T03:00:38.153Z,99.90
2022-10-01T03:03:06.558Z,99.90
2022-10-01T03:05:34.819Z,99.90
2022-10-01T03:08:03.571Z,99.90
2022-10-01T03:10:31.871Z,99.90
2022-10-01T03:13:01.745Z,99.90
2022-10-01T03:15:30.376Z,99.90
2022-10-01T03:18:00.041Z,99.90
2022-10-01T03:20:28.561Z,99.90
2022-10-01T03:22:56.949Z,99.90
2022-10-01T03:25:25.729Z,99.90
2022-10-01T03:27:54.082Z,99.90
2022-10-01T03:30:24.745Z,99.90
2022-10-01T03:32:53.064Z,99.90
2022-10-01T03:35:22.945Z,99.90
2022-10-01T03:37:51.265Z,99.90
2022-10-01T03:40:20.146Z,99.90
2022-10-01T03:42:48.746Z,99.90
2022-10-01T03:45:17.434Z,99.90
2022-10-01T03:47:45.943Z,99.90
2022-10-01T03:50:14.599Z,99.90
2022-10-01T03:52:47.189Z,99.90
2022-10-01T03:55:15.944Z,99.90
2022-10-01T03:57:44.545Z,99.90
2022-10-01T04:00:14.238Z,99.90
2022-10-01T04:02:42.919Z,99.90
2022-10-01T04:05:12.460Z,99.90
2022-10-01T04:07:44.426Z,99.90
2022-10-01T04:10:13.086Z,99.90
2022-10-01T04:12:41.555Z,99.90
2022-10-01T04:15:10.703Z,99.90
2022-10-01T04:17:41.644Z,99.90
2022-10-01T04:20:13.529Z,99.90
2022-10-01T04:22:42.156Z,99.90
2022-10-01T04:25:13.206Z,99.90
2022-10-01T04:27:42.971Z,99.90
2022-10-01T04:30:12.318Z,99.90
2022-10-01T04:32:40.525Z,99.90
2022-10-01T04:35:11.650Z,99.90
2022-10-01T04:37:40.067Z,99.90
2022-10-01T04:40:09.784Z,99.90
2022-10-01T04:42:42.483Z,99.90
2022-10-01T04:45:13.617Z,99.90
2022-10-01T04:47:49.444Z,99.90
2022-10-01T04:50:18.072Z,99.90
2022-10-01T04:52:46.693Z,99.90
2022-10-01T04:55:15.771Z,99.90
2022-10-01T04:57:45.497Z,99.90
2022-10-01T05:00:16.523Z,99.90
2022-10-01T05:02:46.708Z,99.90
2022-10-01T05:05:15.241Z,99.90
2022-10-01T05:07:43.720Z,99.90
2022-10-01T05:10:14.280Z,99.90
2022-10-01T05:12:44.396Z,99.90
2022-10-01T05:15:13.472Z,99.90
2022-10-01T05:17:41.817Z,99.90
2022-10-01T05:20:16.198Z,99.90
2022-10-01T05:22:45.410Z,99.90
2022-10-01T05:25:13.961Z,99.90
2022-10-01T05:27:42.301Z,99.90
2022-10-01T05:30:13.831Z,99.90
2022-10-01T05:32:42.137Z,99.90
2022-10-01T05:35:10.708Z,99.90
2022-10-01T05:37:39.247Z,99.90
2022-10-01T05:40:09.557Z,99.90
2022-10-01T05:42:37.789Z,99.90
2022-10-01T05:45:07.397Z,99.90
2022-10-01T05:47:37.219Z,99.90
2022-10-01T05:50:06.862Z,99.90
2022-10-01T05:52:35.202Z,99.90
2022-10-01T05:55:03.891Z,99.90
2022-10-01T05:57:32.252Z,99.90
2022-10-01T06:00:00.519Z,99.90
2022-10-01T06:02:29.087Z,99.90
2022-10-01T06:04:58.838Z,99.90
2022-10-01T06:07:27.142Z,99.90
2022-10-01T06:09:55.490Z,99.90
2022-10-01T06:21:17.957Z,99.90
2022-10-01T06:23:46.243Z,99.90
2022-10-01T06:26:15.363Z,99.90
2022-10-01T06:28:43.757Z,99.90
2022-10-01T06:31:12.630Z,99.90
2022-10-01T06:41:02.136Z,99.90
2022-10-01T06:51:59.395Z,99.90
2022-10-01T06:54:29.171Z,99.90
2022-10-01T06:56:57.673Z,99.90
2022-10-01T06:59:27.042Z,99.90
2022-10-01T07:01:56.537Z,99.90
2022-10-01T07:10:20.932Z,99.90
2022-10-01T07:12:51.751Z,99.90
2022-10-01T07:15:22.788Z,99.90
2022-10-01T07:17:52.592Z,99.90
2022-10-01T07:20:22.581Z,99.90
2022-10-01T07:22:57.471Z,99.90
2022-10-01T07:25:26.540Z,99.90
2022-10-01T07:28:16.754Z,99.90
2022-10-01T07:30:48.594Z,99.90
2022-10-01T07:33:19.629Z,99.90
2022-10-01T07:35:48.500Z,99.90
2022-10-01T07:38:16.902Z,99.90
2022-10-01T07:40:45.178Z,99.90
2022-10-01T07:43:14.885Z,99.90
2022-10-01T07:45:43.321Z,99.90
2022-10-01T07:48:11.865Z,99.90
2022-10-01T07:50:40.240Z,99.90
2022-10-01T07:53:08.456Z,99.90
2022-10-01T07:55:36.771Z,99.90
2022-10-01T07:58:05.780Z,99.90
2022-10-01T08:00:36.386Z,99.90
2022-10-01T08:03:04.858Z,99.90
2022-10-01T08:05:35.015Z,99.90
2022-10-01T08:08:05.074Z,99.90
2022-10-01T08:10:36.660Z,99.90
2022-10-01T08:13:14.527Z,99.90
2022-10-01T08:15:45.403Z,99.90
2022-10-01T08:18:14.814Z,99.90
2022-10-01T08:20:43.348Z,99.90
2022-10-01T08:23:14.314Z,99.90
2022-10-01T08:25:43.564Z,99.90
2022-10-01T08:28:13.150Z,99.90
2022-10-01T08:31:19.413Z,99.90
2022-10-01T08:33:49.200Z,99.90
2022-10-01T08:36:17.971Z,99.90
2022-10-01T08:38:47.388Z,99.90
2022-10-01T08:41:33.471Z,99.90
2022-10-01T08:44:06.468Z,99.90
2022-10-01T08:46:37.067Z,99.90
2022-10-01T08:49:14.199Z,99.90
2022-10-01T08:51:48.140Z,99.90
2022-10-01T08:54:29.152Z,99.90
2022-10-01T08:57:01.032Z,99.90
2022-10-01T08:59:39.714Z,99.90
2022-10-01T09:02:23.791Z,99.90
2022-10-01T09:05:03.432Z,99.90
2022-10-01T09:07:43.970Z,99.90
2022-10-01T09:10:40.511Z,99.90
2022-10-01T09:13:30.094Z,99.90
2022-10-01T09:16:05.943Z,99.90
2022-10-01T09:18:46.271Z,99.90
2022-10-01T09:21:21.238Z,99.90
2022-10-01T09:24:04.314Z,99.90
2022-10-01T09:26:33.305Z,99.90
2022-10-01T09:29:02.864Z,99.90
2022-10-01T09:31:38.899Z,99.90
2022-10-01T09:34:14.478Z,99.90
2022-10-01T09:36:53.496Z,99.90
2022-10-01T09:39:27.894Z,99.90
2022-10-01T09:41:56.453Z,99.90
2022-10-01T09:44:28.906Z,99.90
2022-10-01T09:46:58.009Z,99.90
2022-10-01T09:49:33.751Z,99.90
2022-10-01T09:52:08.186Z,99.90
2022-10-01T09:54:43.204Z,99.90
2022-10-01T09:57:16.305Z,99.90
2022-10-01T09:59:50.449Z,99.90
2022-10-01T10:02:25.852Z,99.90
2022-10-01T10:05:04.565Z,99.90
2022-10-01T10:07:35.157Z,99.90
2022-10-01T10:10:12.140Z,99.90
2022-10-01T10:12:43.438Z,99.90
2022-10-01T10:15:17.963Z,99.90
2022-10-01T10:17:49.385Z,99.90
2022-10-01T10:20:29.582Z,99.90
2022-10-01T10:23:09.737Z,99.90
2022-10-01T10:25:38.623Z,99.90
2022-10-01T10:28:19.671Z,99.90
2022-10-01T10:30:48.994Z,99.90
2022-10-01T10:33:20.946Z,99.90
2022-10-01T10:35:59.460Z,99.90
2022-10-01T10:38:32.677Z,99.90
2022-10-01T10:41:01.501Z,99.90
2022-10-01T10:43:34.326Z,99.90
2022-10-01T10:46:03.827Z,99.90
2022-10-01T10:48:36.934Z,99.90
2022-10-01T10:51:07.184Z,99.90
2022-10-01T10:53:47.536Z,99.90
2022-10-01T10:56:22.812Z,99.90
2022-10-01T10:58:52.170Z,99.90
2022-10-01T11:01:28.201Z,99.90
2022-10-01T11:04:00.664Z,99.90
2022-10-01T11:06:30.404Z,99.90
2022-10-01T11:09:04.939Z,99.90
2022-10-01T11:11:49.068Z,99.90
2022-10-01T11:14:40.716Z,99.90
2022-10-01T11:17:39.513Z,99.90
2022-10-01T11:20:33.710Z,99.90
2022-10-01T11:23:19.238Z,99.90
2022-10-01T11:25:58.818Z,99.90
2022-10-01T11:28:41.134Z,99.90
2022-10-01T11:31:17.983Z,99.90
2022-10-01T11:33:59.458Z,99.90
2022-10-01T11:36:34.871Z,99.90
2022-10-01T11:39:06.937Z,99.90
2022-10-01T11:41:40.152Z,99.90
2022-10-01T11:44:15.511Z,99.90
2022-10-01T11:46:53.666Z,99.90
2022-10-01T11:49:35.935Z,99.90
2022-10-01T11:52:15.264Z,99.90
2022-10-01T11:55:24.918Z,99.90
2022-10-01T11:58:17.098Z,99.90
2022-10-01T12:00:55.247Z,99.90
2022-10-01T12:03:30.039Z,99.90
2022-10-01T12:05:59.557Z,99.30
2022-10-01T12:08:32.451Z,99.00
2022-10-01T12:11:11.858Z,99.60
2022-10-01T12:13:45.898Z,98.80
2022-10-01T12:16:22.236Z,98.10
2022-10-01T12:18:54.622Z,98.40
2022-10-01T12:21:28.509Z,97.90
2022-10-01T12:24:03.394Z,97.00
2022-10-01T12:26:39.469Z,97.50
2022-10-01T12:29:18.370Z,97.20
2022-10-01T12:31:57.110Z,97.20
2022-10-01T12:34:39.783Z,96.90
2022-10-01T12:37:16.694Z,95.10
2022-10-01T12:40:02.462Z,94.70
2022-10-01T12:42:49.944Z,94.60
2022-10-01T12:45:31.467Z,95.00
2022-10-01T12:48:09.355Z,95.00
2022-10-01T12:50:47.662Z,95.60
2022-10-01T12:53:37.678Z,94.80
2022-10-01T12:56:17.324Z,94.80
2022-10-01T12:59:09.168Z,94.10
2022-10-01T13:01:47.955Z,94.30
2022-10-01T13:04:42.075Z,94.00
2022-10-01T13:07:36.174Z,93.80
2022-10-01T13:10:16.079Z,93.30
2022-10-01T13:12:57.623Z,92.70
2022-10-01T13:15:31.934Z,92.60
2022-10-01T13:18:09.657Z,92.60
2022-10-01T13:20:45.017Z,92.70
2022-10-01T13:23:21.843Z,92.40
2022-10-01T13:26:01.197Z,91.90
2022-10-01T13:28:37.884Z,92.00
2022-10-01T13:31:14.959Z,92.00
2022-10-01T13:33:55.416Z,91.70
2022-10-01T13:36:31.276Z,91.20
2022-10-01T13:38:59.898Z,91.20
2022-10-01T13:41:30.957Z,90.60
2022-10-01T13:44:05.177Z,90.40
2022-10-01T13:46:37.583Z,90.30
2022-10-01T13:49:19.904Z,89.80
2022-10-01T13:51:48.328Z,89.00
2022-10-01T13:54:25.652Z,86.80
2022-10-01T13:56:54.358Z,87.30
2022-10-01T13:59:34.130Z,88.50
2022-10-01T14:02:03.169Z,87.00
2022-10-01T14:04:39.619Z,86.80
2022-10-01T14:07:16.994Z,86.90
2022-10-01T14:09:49.822Z,86.80
2022-10-01T14:12:39.873Z,86.90
2022-10-01T14:15:34.942Z,87.40
2022-10-01T14:18:07.581Z,86.70
2022-10-01T14:20:52.427Z,83.40
2022-10-01T14:23:25.283Z,82.60
2022-10-01T14:26:00.552Z,82.30
2022-10-01T14:28:42.082Z,81.30
2022-10-01T14:31:17.347Z,83.40
2022-10-01T14:33:59.065Z,83.60
2022-10-01T14:36:35.055Z,82.90
2022-10-01T14:39:14.973Z,83.50
2022-10-01T14:41:44.221Z,85.00
2022-10-01T14:44:25.968Z,85.70
2022-10-01T14:46:55.787Z,85.80
2022-10-01T14:49:27.095Z,86.00
2022-10-01T14:52:01.478Z,86.80
2022-10-01T14:54:31.575Z,87.50
2022-10-01T14:57:00.398Z,87.10
2022-10-01T14:59:36.690Z,88.20
2022-10-01T15:02:18.674Z,89.40
2022-10-01T15:04:48.702Z,89.90
2022-10-01T15:07:19.962Z,89.90
2022-10-01T15:09:49.541Z,90.30
2022-10-01T15:12:20.667Z,90.50
2022-10-01T15:14:54.216Z,91.00
2022-10-01T15:17:26.099Z,91.30
2022-10-01T15:19:58.572Z,91.90
2022-10-01T15:22:31.289Z,92.30
2022-10-01T15:25:01.821Z,92.80
2022-10-01T15:27:30.249Z,93.10
2022-10-01T15:30:00.093Z,93.50
2022-10-01T15:32:29.644Z,93.70
2022-10-01T15:35:00.909Z,93.70
2022-10-01T15:37:36.125Z,93.70
2022-10-01T15:40:07.070Z,93.90
2022-10-01T15:42:37.565Z,94.00
2022-10-01T15:45:26.978Z,94.00
2022-10-01T15:47:58.081Z,93.90
2022-10-01T15:50:28.555Z,93.30
2022-10-01T15:53:03.843Z,93.30
2022-10-01T15:55:39.792Z,93.40
2022-10-01T15:58:15.024Z,92.80
2022-10-01T16:00:57.888Z,93.00
2022-10-01T16:03:30.033Z,93.10
2022-10-01T16:06:01.484Z,93.10
2022-10-01T16:08:35.365Z,93.10
2022-10-01T16:11:20.871Z,93.30
2022-10-01T16:13:50.849Z,93.50
2022-10-01T16:16:25.864Z,93.50
2022-10-01T16:18:57.906Z,93.80
2022-10-01T16:21:26.635Z,94.00
2022-10-01T16:23:57.156Z,94.30
2022-10-01T16:26:36.575Z,94.30
2022-10-01T16:29:08.631Z,94.60
2022-10-01T16:31:38.337Z,94.80
2022-10-01T16:34:12.820Z,95.00
2022-10-01T16:36:41.353Z,95.30
2022-10-01T16:39:12.736Z,95.70
2022-10-01T16:41:42.515Z,96.00
2022-10-01T16:44:14.411Z,96.20
2022-10-01T16:46:43.005Z,96.20
2022-10-01T16:49:15.172Z,96.30
2022-10-01T16:51:44.048Z,96.40
2022-10-01T16:54:23.093Z,96.40
2022-10-01T16:56:52.588Z,96.30
2022-10-01T16:59:22.485Z,96.30
2022-10-01T17:01:53.760Z,96.30
2022-10-01T17:04:23.678Z,96.40
2022-10-01T17:06:53.129Z,96.40
2022-10-01T17:09:22.792Z,96.40
2022-10-01T17:11:51.220Z,96.60
2022-10-01T17:14:21.256Z,97.10
2022-10-01T17:16:50.928Z,96.90
2022-10-01T17:19:19.440Z,97.00
2022-10-01T17:21:47.874Z,97.20
2022-10-01T17:24:16.167Z,97.30
2022-10-01T17:26:46.667Z,97.50
2022-10-01T17:29:14.978Z,97.70
2022-10-01T17:31:46.606Z,98.10
2022-10-01T17:34:16.109Z,98.40
2022-10-01T17:36:45.810Z,98.60
2022-10-01T17:39:14.077Z,98.90
2022-10-01T17:41:42.347Z,99.10
2022-10-01T17:44:12.561Z,99.10
2022-10-01T17:46:41.102Z,99.20
2022-10-01T17:49:09.754Z,99.50
2022-10-01T17:51:38.089Z,99.70
2022-10-01T17:54:06.373Z,99.80
2022-10-01T17:56:35.042Z,99.80
2022-10-01T17:59:03.862Z,99.90
2022-10-01T18:01:33.953Z,99.90
2022-10-01T18:04:03.963Z,99.90
2022-10-01T18:06:32.941Z,99.90
2022-10-01T18:09:01.408Z,99.90
2022-10-01T18:11:30.289Z,99.90
2022-10-01T18:13:59.022Z,99.90
2022-10-01T18:16:28.538Z,99.90
2022-10-01T18:21:49.057Z,99.90
2022-10-01T18:24:17.953Z,99.90
2022-10-01T18:26:47.359Z,99.90
2022-10-01T18:29:19.606Z,99.90
2022-10-01T18:31:51.814Z,99.90
2022-10-01T18:34:27.706Z,99.90
2022-10-01T18:37:00.392Z,99.90
2022-10-01T18:39:36.496Z,99.90
2022-10-01T18:42:15.656Z,99.90
2022-10-01T18:44:44.051Z,99.90
2022-10-01T18:47:21.836Z,99.90
2022-10-01T18:50:15.031Z,99.90
2022-10-01T18:52:53.305Z,99.90
2022-10-01T18:55:35.117Z,99.90
2022-10-01T18:58:19.372Z,99.90
2022-10-01T19:00:58.302Z,99.90
2022-10-01T19:04:04.122Z,99.90
2022-10-01T19:06:48.809Z,99.90
2022-10-01T19:09:31.752Z,99.90
2022-10-01T19:12:12.624Z,99.90
2022-10-01T19:15:01.898Z,99.90
2022-10-01T19:17:58.717Z,99.90
2022-10-01T19:20:45.127Z,99.90
2022-10-01T19:23:31.420Z,99.90
2022-10-01T19:26:07.021Z,99.90
2022-10-01T19:28:50.773Z,99.90
2022-10-01T19:31:29.351Z,99.90
2022-10-01T19:34:05.463Z,99.90
2022-10-01T19:36:40.014Z,99.90
2022-10-01T19:39:16.654Z,99.90
2022-10-01T19:41:52.316Z,99.90
2022-10-01T19:44:27.055Z,99.90
2022-10-01T19:47:02.326Z,99.90
2022-10-01T19:49:35.886Z,99.90
2022-10-01T19:52:11.629Z,99.90
2022-10-01T19:54:46.514Z,99.90
2022-10-01T19:57:22.796Z,99.90
2022-10-01T19:59:52.130Z,99.90
2022-10-01T20:02:33.018Z,99.90
2022-10-01T20:05:07.015Z,99.90
2022-10-01T20:07:46.774Z,99.90
2022-10-01T20:10:22.314Z,99.90
2022-10-01T20:12:59.526Z,99.90
2022-10-01T20:15:40.827Z,99.90
2022-10-01T20:18:27.929Z,99.90
2022-10-01T20:21:16.104Z,99.90
2022-10-01T20:23:50.544Z,99.90
2022-10-01T20:26:27.212Z,99.90
2022-10-01T20:29:14.177Z,99.90
2022-10-01T20:31:52.004Z,99.90
2022-10-01T20:34:28.034Z,99.90
2022-10-01T20:37:08.219Z,99.90
2022-10-01T20:39:41.173Z,99.90
2022-10-01T20:42:19.226Z,99.90
2022-10-01T20:44:48.006Z,99.90
2022-10-01T20:47:25.168Z,99.90
2022-10-01T20:50:04.828Z,99.90
2022-10-01T20:52:47.261Z,99.90
2022-10-01T20:55:26.767Z,99.90
2022-10-01T20:58:03.790Z,99.90
2022-10-01T21:00:32.967Z,99.90
2022-10-01T21:03:11.258Z,99.90
2022-10-01T21:05:43.471Z,99.90
2022-10-01T21:08:24.825Z,99.90
2022-10-01T21:10:55.882Z,99.90
2022-10-01T21:13:34.491Z,99.90
2022-10-01T21:16:12.975Z,99.90
2022-10-01T21:18:51.139Z,99.90
2022-10-01T21:21:27.854Z,99.90
2022-10-01T21:24:15.126Z,99.90
2022-10-01T21:26:56.101Z,99.90
2022-10-01T21:29:45.910Z,99.90
2022-10-01T21:32:23.823Z,99.90
2022-10-01T21:35:05.082Z,99.90
2022-10-01T21:37:40.248Z,99.90
2022-10-01T21:40:18.697Z,99.90
2022-10-01T21:42:56.550Z,99.90
2022-10-01T21:45:36.310Z,99.90
2022-10-01T21:48:20.388Z,99.90
2022-10-01T21:50:55.503Z,99.90
2022-10-01T21:53:39.341Z,99.90
2022-10-01T21:56:19.380Z,99.90
2022-10-01T21:59:03.535Z,99.90
2022-10-01T22:01:47.610Z,99.90
2022-10-01T22:04:21.011Z,99.90
2022-10-01T22:06:54.592Z,99.90
2022-10-01T22:09:34.265Z,99.90
2022-10-01T22:12:06.083Z,99.90
2022-10-01T22:14:34.789Z,99.90
2022-10-01T22:17:14.769Z,99.90
2022-10-01T22:19:47.820Z,99.90
2022-10-01T22:22:22.730Z,99.90
2022-10-01T22:24:53.983Z,99.90
2022-10-01T22:27:27.532Z,99.90
2022-10-01T22:30:00.102Z,99.90
2022-10-01T22:32:34.848Z,99.90
2022-10-01T22:35:09.399Z,99.90
2022-10-01T22:37:41.556Z,99.90
2022-10-01T22:40:24.643Z,99.90
2022-10-01T22:43:01.827Z,99.90
2022-10-01T22:45:43.699Z,99.90
2022-10-01T22:48:38.433Z,99.90
2022-10-01T22:51:21.290Z,99.90
2022-10-01T22:54:09.200Z,99.90
2022-10-01T22:56:48.143Z,99.90
2022-10-01T22:59:24.271Z,99.90
2022-10-01T23:02:01.787Z,99.90
2022-10-01T23:04:50.470Z,99.90
2022-10-01T23:07:24.633Z,99.90
2022-10-01T23:10:01.156Z,99.90
2022-10-01T23:12:41.396Z,99.90
2022-10-01T23:15:23.773Z,99.90
2022-10-01T23:18:00.898Z,99.90
2022-10-01T23:20:34.777Z,99.90
2022-10-01T23:23:22.641Z,99.90
2022-10-01T23:26:04.480Z,99.90
2022-10-01T23:28:41.790Z,99.90
2022-10-01T23:31:23.624Z,99.90
2022-10-01T23:34:13.692Z,99.90
2022-10-01T23:36:49.096Z,99.90
2022-10-01T23:39:31.894Z,99.90
2022-10-01T23:42:05.221Z,99.90
2022-10-01T23:44:40.108Z,99.90
2022-10-01T23:47:15.238Z,99.90
2022-10-01T23:49:47.218Z,99.90
2022-10-01T23:52:22.563Z,99.90
2022-10-01T23:54:57.306Z,99.90
2022-10-01T23:57:28.458Z,99.90
